Time;durP1;ratioP1;P1;durP2;ratioP2;P2;SDS_P1;SDS_P2;PMS_P1;PMS_P2;Temp;Humidity;BMP_temperature;BMP_pressure;BME280_temperature;BME280_humidity;BME280_pressure;Samples;Min_cycle;Max_cycle;Signal;HPM_P1;HPM_P2
2021/05/07 00:00:13;;;;;;;22.63;4.30;;;18.50;82.80;;;;;;5068827;28;20032;-70
2021/05/07 00:02:39;;;;;;;18.35;4.10;;;18.50;82.90;;;;;;5088677;28;20020;-70
2021/05/07 00:05:07;;;;;;;17.63;5.07;;;18.50;82.90;;;;;;5089024;28;20137;-69
2021/05/07 00:07:34;;;;;;;23.40;4.70;;;18.50;83.00;;;;;;5087737;28;20019;-69
2021/05/07 00:10:00;;;;;;;17.60;4.95;;;18.50;83.00;;;;;;5088657;28;20024;-70
2021/05/07 00:12:27;;;;;;;22.40;5.25;;;18.50;83.00;;;;;;5084574;28;20348;-70
2021/05/07 00:14:53;;;;;;;19.98;5.45;;;18.50;83.00;;;;;;5086819;28;20027;-69
2021/05/07 00:17:20;;;;;;;25.67;4.63;;;18.50;83.00;;;;;;5087654;28;20105;-69
2021/05/07 00:19:46;;;;;;;27.70;7.63;;;18.50;83.00;;;;;;5088488;28;20467;-70
2021/05/07 00:22:13;;;;;;;20.83;5.55;;;18.40;83.00;;;;;;5086707;28;20036;-69
2021/05/07 00:24:40;;;;;;;17.60;4.40;;;18.50;83.00;;;;;;5086445;28;20016;-69
2021/05/07 00:27:06;;;;;;;22.58;4.70;;;18.40;82.90;;;;;;5088298;28;20016;-70
2021/05/07 00:29:33;;;;;;;25.88;7.68;;;18.40;82.90;;;;;;5087468;28;20415;-70
2021/05/07 00:31:59;;;;;;;20.10;3.80;;;18.50;83.00;;;;;;5088313;28;20047;-70
2021/05/07 00:34:26;;;;;;;19.00;4.85;;;18.50;82.90;;;;;;5087381;28;20016;-70
2021/05/07 00:36:52;;;;;;;22.42;4.80;;;18.40;82.90;;;;;;5088524;28;20026;-69
2021/05/07 00:39:18;;;;;;;22.90;7.13;;;18.40;83.50;;;;;;5087844;28;20016;-70
2021/05/07 00:41:45;;;;;;;19.38;5.10;;;18.40;82.90;;;;;;5085359;28;20115;-69
2021/05/07 00:44:11;;;;;;;15.43;4.05;;;18.40;82.90;;;;;;5088399;28;20032;-69
2021/05/07 00:46:38;;;;;;;17.48;4.75;;;18.40;83.00;;;;;;5087622;28;20472;-69
2021/05/07 00:49:04;;;;;;;17.70;4.38;;;18.40;82.90;;;;;;5088710;28;20016;-70
2021/05/07 00:51:33;;;;;;;20.77;4.50;;;18.40;82.90;;;;;;5087659;28;20498;-69
2021/05/07 00:53:59;;;;;;;19.25;5.47;;;18.40;82.90;;;;;;5088805;28;20012;-70
2021/05/07 00:56:26;;;;;;;23.45;3.85;;;18.40;83.00;;;;;;5087586;28;20445;-70
2021/05/07 00:58:52;;;;;;;15.82;3.72;;;18.40;83.00;;;;;;5090333;28;20024;-70
2021/05/07 01:01:19;;;;;;;15.68;4.53;;;18.40;83.00;;;;;;5092135;28;20035;-69
2021/05/07 01:03:45;;;;;;;20.13;4.45;;;18.40;83.00;;;;;;5088310;28;20507;-71
2021/05/07 01:06:12;;;;;;;20.10;5.30;;;18.50;83.00;;;;;;5091478;28;20020;-72
2021/05/07 01:08:39;;;;;;;15.98;5.10;;;18.40;83.00;;;;;;5090803;28;20111;-71
2021/05/07 01:11:05;;;;;;;20.63;3.67;;;18.40;83.00;;;;;;5091850;28;20062;-71
2021/05/07 01:13:33;;;;;;;14.93;3.75;;;18.40;83.00;;;;;;5090986;28;20020;-71
2021/05/07 01:15:59;;;;;;;16.35;4.50;;;18.40;83.00;;;;;;5091655;28;20061;-71
2021/05/07 01:18:26;;;;;;;16.05;4.32;;;18.40;83.10;;;;;;5091531;28;20086;-71
2021/05/07 01:20:53;;;;;;;19.35;4.43;;;18.40;83.00;;;;;;5088276;28;20028;-71
2021/05/07 01:23:19;;;;;;;12.70;4.68;;;18.40;83.10;;;;;;5091548;28;20039;-71
2021/05/07 01:25:46;;;;;;;11.82;3.88;;;18.40;83.10;;;;;;5090519;28;20129;-71
2021/05/07 01:28:14;;;;;;;26.42;6.80;;;18.50;83.20;;;;;;5091405;28;20451;-71
2021/05/07 01:30:43;;;;;;;21.63;5.22;;;18.40;83.20;;;;;;5088580;28;20622;-71
2021/05/07 01:33:11;;;;;;;16.85;4.53;;;18.50;83.40;;;;;;5091070;28;20085;-71
2021/05/07 01:35:38;;;;;;;20.23;4.68;;;18.50;83.40;;;;;;5091629;28;20024;-71
2021/05/07 01:38:10;;;;;;;17.00;4.13;;;18.40;83.40;;;;;;5090617;28;20038;-71
2021/05/07 01:40:45;;;;;;;18.63;5.55;;;18.50;83.40;;;;;;5091374;28;20094;-71
2021/05/07 01:43:12;;;;;;;18.05;5.78;;;18.50;83.40;;;;;;5090331;28;20017;-71
2021/05/07 01:45:42;;;;;;;13.82;4.28;;;18.40;83.40;;;;;;5091307;28;20020;-71
2021/05/07 01:48:08;;;;;;;15.65;3.83;;;18.50;83.40;;;;;;5090134;28;20055;-71
2021/05/07 01:51:14;;;;;;;25.65;5.13;;;18.40;83.40;;;;;;5082817;28;20103;-71
2021/05/07 01:54:21;;;;;;;18.13;3.78;;;18.40;83.50;;;;;;5085820;28;20502;-71
2021/05/07 01:57:27;;;;;;;18.92;4.43;;;18.40;83.40;;;;;;5087136;28;20513;-72
2021/05/07 02:00:33;;;;;;;16.55;4.80;;;18.40;83.40;;;;;;5085582;28;20024;-71
2021/05/07 02:03:04;;;;;;;19.27;5.28;;;18.50;83.50;;;;;;5085900;28;20081;-71
2021/05/07 02:05:33;;;;;;;18.05;6.18;;;18.40;83.50;;;;;;5087075;28;20020;-71
2021/05/07 02:08:03;;;;;;;18.83;4.65;;;18.40;83.50;;;;;;5090514;28;20050;-71
2021/05/07 02:10:31;;;;;;;23.55;4.85;;;18.50;83.60;;;;;;5089475;28;20032;-72
2021/05/07 02:13:01;;;;;;;20.88;5.70;;;18.40;83.60;;;;;;5073415;28;20386;-71
2021/05/07 02:15:28;;;;;;;19.48;4.88;;;18.40;83.60;;;;;;5090722;28;20016;-71
2021/05/07 02:17:55;;;;;;;19.02;5.85;;;18.40;83.60;;;;;;5088589;28;20031;-71
2021/05/07 02:20:25;;;;;;;23.73;5.07;;;18.40;83.50;;;;;;5089650;28;20099;-71
2021/05/07 02:22:52;;;;;;;21.40;4.78;;;18.40;83.50;;;;;;5088692;28;20020;-71
2021/05/07 02:25:21;;;;;;;26.80;5.50;;;18.40;83.50;;;;;;5088182;28;20062;-72
2021/05/07 02:27:48;;;;;;;15.70;4.45;;;18.40;83.50;;;;;;5090600;28;20579;-71
2021/05/07 02:30:18;;;;;;;17.58;5.32;;;18.40;83.50;;;;;;5089077;28;20095;-71
2021/05/07 02:32:44;;;;;;;27.98;6.88;;;18.40;83.40;;;;;;5091120;28;20017;-71
2021/05/07 02:35:11;;;;;;;18.15;4.93;;;18.40;83.40;;;;;;5089006;28;20052;-71
2021/05/07 02:37:38;;;;;;;18.90;4.30;;;18.40;83.40;;;;;;5090290;28;20016;-71
2021/05/07 02:40:06;;;;;;;17.95;4.72;;;18.40;83.40;;;;;;5089328;28;20016;-71
2021/05/07 02:42:33;;;;;;;26.27;5.00;;;18.40;83.40;;;;;;5088890;28;20030;-71
2021/05/07 02:45:03;;;;;;;17.98;4.30;;;18.40;83.40;;;;;;5089977;28;20016;-71
2021/05/07 02:47:34;;;;;;;19.10;5.32;;;18.40;83.40;;;;;;5085765;28;20062;-71
2021/05/07 02:50:02;;;;;;;19.58;6.15;;;18.40;83.40;;;;;;5088544;28;20503;-71
2021/05/07 02:52:29;;;;;;;20.63;4.45;;;18.40;83.40;;;;;;5088339;28;20012;-71
2021/05/07 02:54:55;;;;;;;20.65;5.22;;;18.40;83.40;;;;;;5089931;28;20108;-71
2021/05/07 02:57:22;;;;;;;22.25;6.32;;;18.40;83.40;;;;;;5088879;28;20402;-71
2021/05/07 02:59:49;;;;;;;21.83;10.57;;;18.40;83.40;;;;;;5089649;28;20114;-72
2021/05/07 03:02:15;;;;;;;28.05;9.18;;;18.40;83.40;;;;;;5088873;28;20063;-71
2021/05/07 03:04:42;;;;;;;21.30;7.72;;;18.30;83.40;;;;;;5088158;28;20056;-71
2021/05/07 03:07:08;;;;;;;24.08;9.15;;;18.40;83.40;;;;;;5090067;28;20024;-71
2021/05/07 03:09:35;;;;;;;13.10;5.40;;;18.40;83.40;;;;;;5086882;28;20051;-71
2021/05/07 03:12:01;;;;;;;23.90;5.93;;;18.40;83.40;;;;;;5089632;28;20399;-71
2021/05/07 03:14:28;;;;;;;19.38;5.50;;;18.40;83.40;;;;;;5087993;28;20141;-71
2021/05/07 03:16:54;;;;;;;15.13;4.53;;;18.40;83.40;;;;;;5088007;28;20023;-71
2021/05/07 03:19:21;;;;;;;17.67;5.13;;;18.40;83.40;;;;;;5082850;28;20483;-71
2021/05/07 03:21:47;;;;;;;19.55;6.03;;;18.40;83.40;;;;;;5088351;28;20383;-72
2021/05/07 03:24:14;;;;;;;19.10;4.38;;;18.40;83.40;;;;;;5089404;28;20020;-71
2021/05/07 03:26:43;;;;;;;20.45;5.25;;;18.40;83.40;;;;;;5088497;28;20058;-72
2021/05/07 03:29:10;;;;;;;21.75;4.95;;;18.40;83.40;;;;;;5088775;28;20078;-71
2021/05/07 03:31:36;;;;;;;16.38;4.30;;;18.40;83.40;;;;;;5085432;28;20043;-71
2021/05/07 03:34:05;;;;;;;17.67;4.90;;;18.40;83.40;;;;;;5088078;28;20110;-71
2021/05/07 03:36:32;;;;;;;24.00;6.00;;;18.30;83.40;;;;;;5088437;28;20016;-71
2021/05/07 03:38:59;;;;;;;17.60;4.32;;;18.30;83.40;;;;;;5089026;28;20071;-71
2021/05/07 03:41:25;;;;;;;24.38;5.55;;;18.30;83.40;;;;;;5089268;28;20028;-71
2021/05/07 03:43:52;;;;;;;15.13;4.22;;;18.30;83.40;;;;;;5088384;28;20021;-70
2021/05/07 03:46:19;;;;;;;24.00;4.93;;;18.30;83.40;;;;;;5089084;28;20028;-71
2021/05/07 03:48:45;;;;;;;19.20;5.05;;;18.30;84.00;;;;;;5087871;28;20016;-71
2021/05/07 03:51:12;;;;;;;17.30;4.55;;;18.40;83.40;;;;;;5087994;28;20576;-71
2021/05/07 03:53:38;;;;;;;17.38;4.32;;;18.30;83.30;;;;;;5088125;28;20028;-72
2021/05/07 03:56:05;;;;;;;21.60;5.25;;;18.30;83.30;;;;;;5089023;28;20095;-71
2021/05/07 03:58:31;;;;;;;21.17;5.10;;;18.30;83.30;;;;;;5088457;28;20012;-70
2021/05/07 04:00:58;;;;;;;16.38;3.80;;;18.30;83.30;;;;;;5086757;28;20031;-71
2021/05/07 04:03:24;;;;;;;15.90;4.75;;;18.40;83.30;;;;;;5087273;28;20532;-71
2021/05/07 04:05:53;;;;;;;16.25;4.45;;;18.30;83.20;;;;;;5086863;28;20400;-72
2021/05/07 04:09:15;;;;;;;19.40;6.45;;;18.30;83.20;;;;;;5088706;28;20338;-70
2021/05/07 04:14:15;;;;;;;15.88;6.60;;;18.30;83.20;;;;;;5086880;28;20037;-71
2021/05/07 04:16:41;;;;;;;24.73;7.40;;;18.30;83.20;;;;;;5089073;28;20539;-70
2021/05/07 04:19:08;;;;;;;19.67;5.97;;;18.30;83.20;;;;;;5087746;28;20024;-72
2021/05/07 04:21:34;;;;;;;19.35;5.10;;;18.30;83.30;;;;;;5088757;28;20056;-69
2021/05/07 04:24:01;;;;;;;22.60;5.07;;;18.30;83.30;;;;;;5087647;28;20012;-69
2021/05/07 04:26:27;;;;;;;18.58;5.07;;;18.30;83.30;;;;;;5084947;28;20024;-70
2021/05/07 04:28:54;;;;;;;23.55;4.45;;;18.30;83.80;;;;;;5088430;28;20016;-70
2021/05/07 04:31:20;;;;;;;20.50;7.00;;;18.30;83.30;;;;;;5087334;28;20514;-70
2021/05/07 04:33:51;;;;;;;17.13;7.18;;;18.30;83.40;;;;;;5090798;28;20052;-69
2021/05/07 04:36:17;;;;;;;21.60;7.18;;;18.30;83.40;;;;;;5091788;28;20023;-71
2021/05/07 04:38:44;;;;;;;16.50;5.65;;;18.30;83.40;;;;;;5092713;28;20051;-69
2021/05/07 04:41:10;;;;;;;24.67;6.95;;;18.30;83.40;;;;;;5090926;28;20031;-71
2021/05/07 04:43:37;;;;;;;22.23;6.45;;;18.30;83.30;;;;;;5092181;28;20014;-68
2021/05/07 04:46:04;;;;;;;16.88;5.07;;;18.30;83.30;;;;;;5092425;28;20374;-69
2021/05/07 04:48:31;;;;;;;15.27;4.68;;;18.30;83.30;;;;;;5089071;28;20039;-69
2021/05/07 04:50:57;;;;;;;19.25;4.95;;;18.30;83.40;;;;;;5074253;28;20034;-71
2021/05/07 04:53:24;;;;;;;18.90;4.40;;;18.30;83.40;;;;;;5091208;28;20095;-70
2021/05/07 04:55:50;;;;;;;15.40;4.93;;;18.30;83.40;;;;;;5093025;28;20690;-70
2021/05/07 04:58:17;;;;;;;18.48;4.55;;;18.30;83.40;;;;;;5090927;28;20051;-68
2021/05/07 05:00:43;;;;;;;16.08;4.78;;;18.20;83.30;;;;;;5092140;28;20023;-69
2021/05/07 05:03:10;;;;;;;19.83;4.30;;;18.30;83.40;;;;;;5091430;28;20047;-69
2021/05/07 05:05:36;;;;;;;24.27;5.53;;;18.30;83.40;;;;;;5091647;28;20043;-68
2021/05/07 05:08:03;;;;;;;20.45;4.82;;;18.30;83.40;;;;;;5091816;28;20031;-69
2021/05/07 05:10:30;;;;;;;16.23;4.95;;;18.30;83.40;;;;;;5090270;28;20016;-68
2021/05/07 05:12:57;;;;;;;16.35;4.38;;;18.30;83.40;;;;;;5092066;28;20042;-69
2021/05/07 05:15:24;;;;;;;19.02;4.68;;;18.30;83.40;;;;;;5091022;28;20528;-68
2021/05/07 05:17:51;;;;;;;17.00;5.07;;;18.30;83.30;;;;;;5091576;28;20052;-68
2021/05/07 05:20:18;;;;;;;22.02;4.75;;;18.20;83.30;;;;;;5084971;28;20055;-69
2021/05/07 05:22:45;;;;;;;14.57;5.68;;;18.20;83.30;;;;;;5091306;28;20055;-69
2021/05/07 05:25:12;;;;;;;14.85;5.97;;;18.30;83.40;;;;;;5091460;28;20020;-69
2021/05/07 05:27:39;;;;;;;26.38;5.90;;;18.30;83.30;;;;;;5091055;28;20028;-69
2021/05/07 05:30:07;;;;;;;16.02;5.15;;;18.20;83.30;;;;;;5091590;28;20489;-70
2021/05/07 05:32:35;;;;;;;16.77;5.13;;;18.20;83.30;;;;;;5089349;28;20032;-70
2021/05/07 05:35:03;;;;;;;18.20;5.07;;;18.20;83.20;;;;;;5091793;28;20023;-69
2021/05/07 05:37:29;;;;;;;23.17;4.82;;;18.20;83.20;;;;;;5090784;28;20371;-69
2021/05/07 05:39:56;;;;;;;21.60;5.90;;;18.20;83.20;;;;;;5091398;28;20090;-69
2021/05/07 05:42:22;;;;;;;22.17;4.57;;;18.20;83.20;;;;;;5088890;28;20033;-69
2021/05/07 05:44:49;;;;;;;20.77;4.95;;;18.20;83.20;;;;;;5088389;28;20034;-69
2021/05/07 05:47:15;;;;;;;17.00;4.60;;;18.30;83.30;;;;;;5091416;28;20028;-69
2021/05/07 05:49:42;;;;;;;15.13;5.07;;;18.20;83.20;;;;;;5090260;28;20020;-70
2021/05/07 05:52:08;;;;;;;16.63;5.15;;;18.30;83.40;;;;;;5091208;28;20363;-69
2021/05/07 05:54:35;;;;;;;18.60;4.22;;;18.20;83.30;;;;;;5089133;28;20485;-69
2021/05/07 05:57:01;;;;;;;18.58;5.35;;;18.20;83.30;;;;;;5073956;28;20355;-69
2021/05/07 05:59:28;;;;;;;14.45;4.28;;;18.20;83.30;;;;;;5089953;28;20062;-70
2021/05/07 06:01:54;;;;;;;13.57;3.80;;;18.20;83.30;;;;;;5090560;28;20034;-69
2021/05/07 06:04:21;;;;;;;15.98;3.45;;;18.20;83.40;;;;;;5091069;28;20022;-70
2021/05/07 06:06:48;;;;;;;15.13;4.35;;;18.20;83.40;;;;;;5088254;28;20114;-69
2021/05/07 06:09:14;;;;;;;22.80;4.20;;;18.30;83.50;;;;;;5090550;28;20475;-69
2021/05/07 06:11:41;;;;;;;21.55;6.53;;;18.20;83.40;;;;;;5089894;28;20520;-70
2021/05/07 06:14:07;;;;;;;23.17;4.88;;;18.30;83.50;;;;;;5091009;28;20569;-69
2021/05/07 06:16:34;;;;;;;19.33;5.45;;;18.30;83.50;;;;;;5089935;28;20475;-69
2021/05/07 06:19:01;;;;;;;13.07;5.45;;;18.30;83.60;;;;;;5089444;28;20064;-69
2021/05/07 06:21:27;;;;;;;20.90;4.28;;;18.30;83.60;;;;;;5090733;28;20081;-69
2021/05/07 06:23:54;;;;;;;19.65;4.60;;;18.30;83.60;;;;;;5090154;28;20012;-69
2021/05/07 06:26:20;;;;;;;18.92;4.15;;;18.30;83.60;;;;;;5091047;28;20048;-69
2021/05/07 06:28:47;;;;;;;18.50;4.53;;;18.30;83.70;;;;;;5089604;28;20574;-69
2021/05/07 06:31:13;;;;;;;17.70;4.53;;;18.30;83.80;;;;;;5090396;28;20048;-69
2021/05/07 06:33:40;;;;;;;22.50;5.88;;;18.30;83.80;;;;;;5087158;28;20384;-69
2021/05/07 06:36:06;;;;;;;15.93;4.85;;;18.30;83.80;;;;;;5086977;28;20047;-70
2021/05/07 06:38:33;;;;;;;15.90;4.55;;;18.30;83.80;;;;;;5090280;28;20095;-69
2021/05/07 06:40:59;;;;;;;16.58;5.43;;;18.30;83.80;;;;;;5088463;28;20040;-69
2021/05/07 06:43:26;;;;;;;15.18;4.78;;;18.30;83.90;;;;;;5090391;28;20050;-69
2021/05/07 06:45:52;;;;;;;12.90;4.75;;;18.30;83.90;;;;;;5089084;28;20012;-69
2021/05/07 06:48:18;;;;;;;15.52;6.30;;;18.30;83.90;;;;;;5090273;28;20020;-69
2021/05/07 06:50:45;;;;;;;22.20;5.63;;;18.30;83.90;;;;;;5089165;28;20016;-69
2021/05/07 06:53:11;;;;;;;19.73;4.97;;;18.30;83.90;;;;;;5090430;28;20016;-69
2021/05/07 06:55:38;;;;;;;16.63;3.97;;;18.30;84.00;;;;;;5089519;28;20024;-69
2021/05/07 06:58:04;;;;;;;14.25;3.10;;;18.30;84.00;;;;;;5089540;28;20093;-69
2021/05/07 07:00:32;;;;;;;16.50;3.97;;;18.30;84.00;;;;;;5087960;28;20202;-69
2021/05/07 07:02:58;;;;;;;15.48;5.65;;;18.30;84.00;;;;;;5086259;28;20027;-69
2021/05/07 07:05:25;;;;;;;12.15;3.80;;;18.30;84.00;;;;;;5088785;28;20025;-69
2021/05/07 07:07:53;;;;;;;8.50;3.03;;;18.40;84.10;;;;;;5088883;28;20012;-69
2021/05/07 07:10:21;;;;;;;16.35;4.30;;;18.30;84.00;;;;;;5090075;28;20013;-69
2021/05/07 07:12:47;;;;;;;17.75;5.22;;;18.40;84.10;;;;;;5088763;28;20020;-68
2021/05/07 07:15:15;;;;;;;17.00;4.22;;;18.40;84.10;;;;;;5089392;28;20012;-69
2021/05/07 07:17:41;;;;;;;12.15;3.28;;;18.40;84.10;;;;;;5089483;28;20501;-69
2021/05/07 07:20:08;;;;;;;12.55;3.63;;;18.40;84.10;;;;;;5088679;28;20020;-69
2021/05/07 07:22:35;;;;;;;12.90;5.10;;;18.40;84.10;;;;;;5087488;28;20435;-69
2021/05/07 07:25:01;;;;;;;13.63;4.75;;;18.40;84.10;;;;;;5087654;28;20111;-69
2021/05/07 07:27:28;;;;;;;14.00;4.20;;;18.40;84.20;;;;;;5087626;28;20773;-69
2021/05/07 07:29:54;;;;;;;14.07;3.20;;;18.40;84.20;;;;;;5088460;28;20024;-68
2021/05/07 07:32:21;;;;;;;15.45;3.45;;;18.40;84.20;;;;;;5089025;28;20154;-70
2021/05/07 07:34:47;;;;;;;8.07;3.80;;;18.40;84.30;;;;;;5089010;28;20028;-68
2021/05/07 07:37:14;;;;;;;11.38;3.25;;;18.50;84.30;;;;;;5088487;28;20020;-69
2021/05/07 07:39:42;;;;;;;12.77;3.03;;;18.50;84.40;;;;;;5089487;28;20023;-68
2021/05/07 07:42:08;;;;;;;15.02;4.55;;;18.50;84.40;;;;;;5088223;28;20031;-68
2021/05/07 07:44:35;;;;;;;15.32;4.18;;;18.50;84.40;;;;;;5089387;28;20023;-68
2021/05/07 07:47:01;;;;;;;21.35;3.63;;;18.60;84.50;;;;;;5084599;28;20024;-68
2021/05/07 07:49:28;;;;;;;13.57;3.45;;;18.60;84.50;;;;;;5088005;28;20013;-68
2021/05/07 07:51:58;;;;;;;10.68;3.10;;;18.60;84.50;;;;;;5088438;28;20031;-68
2021/05/07 07:54:25;;;;;;;14.90;5.45;;;18.60;84.50;;;;;;5088097;28;20142;-67
2021/05/07 07:56:51;;;;;;;13.35;3.03;;;18.60;84.50;;;;;;5086690;28;20024;-68
2021/05/07 07:59:18;;;;;;;17.45;4.57;;;18.60;84.50;;;;;;5087473;28;20020;-68
2021/05/07 08:01:44;;;;;;;8.45;3.08;;;18.70;84.50;;;;;;5088986;28;20058;-68
2021/05/07 08:04:11;;;;;;;9.13;3.03;;;18.70;84.50;;;;;;5087877;28;20013;-68
2021/05/07 08:06:37;;;;;;;13.35;3.53;;;18.70;84.40;;;;;;5088574;28;20018;-68
2021/05/07 08:09:04;;;;;;;8.52;3.47;;;18.70;84.40;;;;;;5088358;28;20004;-67
2021/05/07 08:11:31;;;;;;;10.00;2.80;;;18.70;84.40;;;;;;5088887;28;20027;-67
2021/05/07 08:13:57;;;;;;;14.52;3.50;;;18.70;84.30;;;;;;5088525;28;20024;-68
2021/05/07 08:16:24;;;;;;;10.38;3.30;;;18.80;84.30;;;;;;5087934;28;20012;-67
2021/05/07 08:18:50;;;;;;;12.45;3.38;;;18.70;84.20;;;;;;5087562;28;20432;-67
2021/05/07 08:21:17;;;;;;;12.70;2.70;;;18.80;84.20;;;;;;5087368;28;20368;-68
2021/05/07 08:23:43;;;;;;;9.32;4.00;;;18.80;84.20;;;;;;5088909;28;20024;-67
2021/05/07 08:26:10;;;;;;;10.38;2.20;;;18.80;84.10;;;;;;5087511;28;20024;-67
2021/05/07 08:28:36;;;;;;;10.60;2.60;;;18.90;84.10;;;;;;5086170;28;20426;-67
2021/05/07 08:31:03;;;;;;;8.20;2.90;;;18.80;83.90;;;;;;5087950;28;20372;-67
2021/05/07 08:33:29;;;;;;;15.63;3.92;;;18.90;83.90;;;;;;5087925;28;20008;-67
2021/05/07 08:35:55;;;;;;;8.48;2.78;;;18.90;83.80;;;;;;5086005;28;20027;-67
2021/05/07 08:38:22;;;;;;;8.75;2.50;;;18.90;83.70;;;;;;5087394;28;20024;-68
2021/05/07 08:40:48;;;;;;;9.48;5.15;;;19.00;83.60;;;;;;5088561;28;20111;-67
2021/05/07 08:43:16;;;;;;;7.15;2.35;;;19.00;83.50;;;;;;5086291;28;20044;-68
2021/05/07 08:45:42;;;;;;;8.02;2.38;;;19.00;83.40;;;;;;5088469;28;20030;-68
2021/05/07 08:48:12;;;;;;;9.48;2.72;;;19.00;83.30;;;;;;5085305;28;20074;-68
2021/05/07 08:50:38;;;;;;;8.20;2.97;;;19.10;83.30;;;;;;5085061;28;20449;-68
2021/05/07 08:53:05;;;;;;;9.65;2.38;;;19.10;83.20;;;;;;5088435;28;20020;-68
2021/05/07 08:55:31;;;;;;;10.90;2.47;;;19.10;83.10;;;;;;5087270;28;20547;-68
2021/05/07 08:57:58;;;;;;;11.43;2.33;;;19.10;83.00;;;;;;5088027;28;20055;-68
2021/05/07 09:00:24;;;;;;;7.20;2.85;;;19.10;82.90;;;;;;5087610;28;20019;-68
2021/05/07 09:02:51;;;;;;;9.65;2.22;;;19.10;82.80;;;;;;5088289;28;20055;-68
2021/05/07 09:05:31;;;;;;;7.07;2.65;;;19.10;82.80;;;;;;5087407;28;20026;-67
2021/05/07 09:07:57;;;;;;;6.13;2.20;;;19.10;82.70;;;;;;5083922;28;20395;-68
2021/05/07 09:10:59;;;;;;;10.30;3.42;;;19.10;82.70;;;;;;5088114;28;20024;-68
2021/05/07 09:13:26;;;;;;;13.82;3.45;;;19.10;82.60;;;;;;5063868;28;20039;-68
2021/05/07 09:15:53;;;;;;;10.00;2.92;;;19.10;82.60;;;;;;5087952;28;20509;-68
2021/05/07 09:18:19;;;;;;;9.48;2.47;;;19.10;82.60;;;;;;5087278;28;20020;-68
2021/05/07 09:20:48;;;;;;;7.00;2.08;;;19.10;82.50;;;;;;5090429;28;20020;-68
2021/05/07 09:23:18;;;;;;;8.40;1.95;;;19.10;82.50;;;;;;5091606;28;20463;-67
2021/05/07 09:25:51;;;;;;;4.47;1.08;;;19.10;82.60;;;;;;5090895;28;20430;-67
2021/05/07 09:28:18;;;;;;;3.35;1.10;;;19.10;82.80;;;;;;5091798;28;20047;-67
2021/05/07 09:30:45;;;;;;;2.45;1.10;;;19.10;82.80;;;;;;5090688;28;20043;-67
2021/05/07 09:33:14;;;;;;;2.58;0.90;;;19.10;82.80;;;;;;5091575;28;20013;-67
2021/05/07 09:35:42;;;;;;;3.55;1.50;;;19.10;82.90;;;;;;5091080;28;20352;-68
2021/05/07 09:38:13;;;;;;;5.18;1.50;;;19.00;82.90;;;;;;5091311;28;20016;-67
2021/05/07 09:40:43;;;;;;;7.95;1.27;;;19.00;82.90;;;;;;5089261;28;20089;-67
2021/05/07 09:43:23;;;;;;;1.27;0.98;;;19.00;83.00;;;;;;5090384;28;20020;-68
2021/05/07 09:45:50;;;;;;;4.82;1.02;;;19.00;83.20;;;;;;5090558;28;20028;-68
2021/05/07 09:48:21;;;;;;;4.03;1.20;;;19.00;83.20;;;;;;5088122;28;20475;-67
2021/05/07 09:50:50;;;;;;;5.03;0.98;;;19.00;83.30;;;;;;5091594;28;20023;-67
2021/05/07 09:53:24;;;;;;;4.03;1.08;;;19.00;83.30;;;;;;5088844;28;20016;-68
2021/05/07 09:55:59;;;;;;;3.33;0.70;;;19.00;83.40;;;;;;5090499;28;21306;-67
2021/05/07 09:58:25;;;;;;;;;;;19.00;83.50;;;;;;5091884;28;20073;-67
2021/05/07 10:00:52;;;;;;;2.53;1.00;;;19.00;83.40;;;;;;5090124;28;20365;-68
2021/05/07 10:03:19;;;;;;;3.70;0.70;;;19.10;84.00;;;;;;5091157;28;20057;-67
2021/05/07 10:05:45;;;;;;;3.88;1.05;;;19.00;83.30;;;;;;5090169;28;20020;-68
2021/05/07 10:08:12;;;;;;;4.32;1.05;;;19.00;83.30;;;;;;5090842;28;20020;-67
2021/05/07 10:10:43;;;;;;;2.15;0.82;;;19.00;83.20;;;;;;5088498;28;20055;-68
2021/05/07 10:13:14;;;;;;;1.80;0.68;;;19.00;83.20;;;;;;5089544;28;20024;-67
2021/05/07 10:15:42;;;;;;;2.83;1.13;;;19.00;83.20;;;;;;5090916;28;20024;-68
2021/05/07 10:18:23;;;;;;;8.05;1.88;;;19.10;83.10;;;;;;5088552;28;20417;-68
2021/05/07 10:21:01;;;;;;;1.40;1.10;;;19.10;83.10;;;;;;5090361;28;20514;-67
2021/05/07 10:23:28;;;;;;;3.20;1.10;;;19.10;82.90;;;;;;5089073;28;20027;-67
2021/05/07 10:26:02;;;;;;;4.43;1.52;;;19.10;82.90;;;;;;5090212;28;20020;-67
2021/05/07 10:28:43;;;;;;;2.42;0.75;;;19.10;82.80;;;;;;5089889;28;20553;-67
2021/05/07 10:31:11;;;;;;;5.05;1.20;;;19.10;82.80;;;;;;5088163;28;20044;-68
2021/05/07 10:33:38;;;;;;;3.97;1.00;;;19.10;82.70;;;;;;5090503;28;20016;-67
2021/05/07 10:36:05;;;;;;;2.53;1.10;;;19.10;82.70;;;;;;5089769;28;20012;-68
2021/05/07 10:38:32;;;;;;;2.65;1.67;;;19.10;82.70;;;;;;5070269;28;20863;-67
2021/05/07 10:41:08;;;;;;;3.90;0.98;;;19.10;82.70;;;;;;5088882;28;20044;-68
2021/05/07 10:43:39;;;;;;;3.50;1.20;;;19.10;82.60;;;;;;5071366;28;20387;-70
2021/05/07 10:46:06;;;;;;;5.30;1.27;;;19.10;82.50;;;;;;5090514;28;20012;-68
2021/05/07 10:48:33;;;;;;;3.85;1.20;;;19.10;82.50;;;;;;5089158;28;20497;-68
2021/05/07 10:51:13;;;;;;;8.57;1.85;;;19.20;82.50;;;;;;5090532;28;20407;-68
2021/05/07 10:53:39;;;;;;;4.90;1.25;;;19.10;82.40;;;;;;5089122;28;20012;-68
2021/05/07 10:56:22;;;;;;;4.80;1.85;;;19.20;82.50;;;;;;5089663;28;20016;-68
2021/05/07 10:58:50;;;;;;;5.15;1.33;;;19.20;82.40;;;;;;5090115;28;20035;-68
2021/05/07 11:01:30;;;;;;;6.43;1.33;;;19.20;82.50;;;;;;5085049;28;20039;-68
2021/05/07 11:04:01;;;;;;;4.22;2.15;;;19.20;82.50;;;;;;5085572;28;20096;-68
2021/05/07 11:06:55;;;;;;;5.70;1.67;;;19.20;82.60;;;;;;5087806;28;20016;-69
2021/05/07 11:09:23;;;;;;;4.20;1.58;;;19.20;82.70;;;;;;5077932;28;21059;-68
2021/05/07 11:11:54;;;;;;;4.90;1.42;;;19.20;82.70;;;;;;5089155;28;20026;-68
2021/05/07 11:14:25;;;;;;;6.55;1.23;;;19.20;82.70;;;;;;5088659;28;20018;-68
2021/05/07 11:16:53;;;;;;;2.67;1.10;;;19.20;82.70;;;;;;5089471;28;20024;-68
2021/05/07 11:19:27;;;;;;;7.60;1.35;;;19.20;82.70;;;;;;5088598;28;20024;-68
2021/05/07 11:21:57;;;;;;;10.77;2.23;;;19.20;82.70;;;;;;5089151;28;20360;-68
2021/05/07 11:24:26;;;;;;;4.75;1.42;;;19.20;82.60;;;;;;5087008;28;20328;-68
2021/05/07 11:26:53;;;;;;;7.43;1.70;;;19.20;82.60;;;;;;5086622;28;20095;-68
2021/05/07 11:29:45;;;;;;;5.57;1.55;;;19.30;82.60;;;;;;5089413;28;20880;-68
2021/05/07 11:32:22;;;;;;;5.38;1.50;;;19.30;82.40;;;;;;5084509;28;20451;-68
2021/05/07 11:35:05;;;;;;;7.20;2.03;;;19.30;82.30;;;;;;5089204;28;20023;-68
2021/05/07 11:37:32;;;;;;;7.68;2.00;;;19.30;82.20;;;;;;5088814;28;20020;-68
2021/05/07 11:40:06;;;;;;;7.68;2.33;;;19.40;82.20;;;;;;5088288;28;20004;-68
2021/05/07 11:42:34;;;;;;;6.77;1.50;;;19.40;82.10;;;;;;5088112;28;20375;-68
2021/05/07 11:45:06;;;;;;;8.45;2.70;;;19.40;82.10;;;;;;5088055;28;20632;-68
2021/05/07 11:47:34;;;;;;;7.90;2.10;;;19.40;82.00;;;;;;5085295;28;20066;-68
2021/05/07 11:50:01;;;;;;;7.43;1.83;;;19.40;82.00;;;;;;5086398;28;20070;-68
2021/05/07 11:52:41;;;;;;;6.10;2.10;;;19.40;82.00;;;;;;5088634;28;20026;-68
2021/05/07 11:55:10;;;;;;;7.70;2.25;;;19.40;81.90;;;;;;5089105;28;20020;-68
2021/05/07 11:57:37;;;;;;;8.95;2.50;;;19.40;81.90;;;;;;5087645;28;20017;-68
2021/05/07 12:00:07;;;;;;;7.10;2.13;;;19.40;81.70;;;;;;5088922;28;20024;-68
2021/05/07 12:02:34;;;;;;;6.13;1.90;;;19.40;81.70;;;;;;5087736;28;20176;-68
2021/05/07 12:05:00;;;;;;;7.90;2.13;;;19.40;81.70;;;;;;5088848;28;20099;-68
2021/05/07 12:07:34;;;;;;;7.15;1.92;;;19.40;81.60;;;;;;5087036;28;20047;-68
2021/05/07 12:10:01;;;;;;;7.90;2.10;;;19.40;81.60;;;;;;5085167;28;20016;-67
2021/05/07 12:12:29;;;;;;;5.22;1.90;;;19.40;81.50;;;;;;5087317;28;20026;-68
2021/05/07 12:15:12;;;;;;;4.07;1.50;;;19.40;81.40;;;;;;5087851;28;20016;-68
2021/05/07 12:17:57;;;;;;;8.70;1.83;;;19.40;81.30;;;;;;5088706;28;20013;-67
2021/05/07 12:20:27;;;;;;;10.03;2.13;;;19.40;81.20;;;;;;5088328;28;20020;-67
2021/05/07 12:22:59;;;;;;;9.15;1.88;;;19.40;81.20;;;;;;5087926;28;20028;-68
2021/05/07 12:25:27;;;;;;;12.43;3.40;;;19.50;81.10;;;;;;5088555;28;20016;-68
2021/05/07 12:27:56;;;;;;;11.35;2.35;;;19.40;81.00;;;;;;5087615;28;20024;-68
2021/05/07 12:30:33;;;;;;;5.82;2.10;;;19.50;81.00;;;;;;5088819;28;20012;-68
2021/05/07 12:33:04;;;;;;;8.98;2.08;;;19.50;80.90;;;;;;5087075;28;20017;-68
2021/05/07 12:35:39;;;;;;;7.35;1.88;;;19.50;80.90;;;;;;5087275;28;20065;-68
2021/05/07 12:40:55;;;;;;;7.22;2.28;;;19.50;80.60;;;;;;5086550;28;20760;-68
2021/05/07 12:43:22;;;;;;;7.05;2.05;;;19.60;80.50;;;;;;5088109;28;20016;-68
2021/05/07 12:45:50;;;;;;;13.05;2.60;;;19.60;80.30;;;;;;5087364;28;20020;-68
2021/05/07 12:48:17;;;;;;;4.88;2.35;;;19.60;80.10;;;;;;5088190;28;20616;-68
2021/05/07 12:50:45;;;;;;;6.80;2.20;;;19.60;80.00;;;;;;5088127;28;20100;-68
2021/05/07 12:53:15;;;;;;;6.47;2.08;;;19.70;79.80;;;;;;5089255;28;20149;-68